Time;durP1;ratioP1;P1;durP2;ratioP2;P2;SDS_P1;SDS_P2;PMS_P1;PMS_P2;Temp;Humidity;BMP_temperature;BMP_pressure;BME280_temperature;BME280_humidity;BME280_pressure;Samples;Min_cycle;Max_cycle;Signal;HPM_P1;HPM_P2
2022/09/22 00:01:29;;;;;;;9.13;6.10;;;;;;;9.04;65.61;95689.50;5007652;28;20025;-80
2022/09/22 00:04:02;;;;;;;7.68;5.95;;;;;;;8.97;65.68;95678.59;5026463;28;20092;-81
2022/09/22 00:06:33;;;;;;;9.93;6.30;;;;;;;9.02;65.83;95692.34;4994054;28;20033;-80
2022/09/22 00:08:59;;;;;;;7.93;6.00;;;;;;;9.14;65.73;95687.50;5008848;28;20106;-81
2022/09/22 00:11:42;;;;;;;8.60;6.13;;;;;;;9.08;65.51;95688.16;5009991;28;20139;-81
2022/09/22 00:14:15;;;;;;;8.32;5.88;;;;;;;9.09;65.71;95694.38;5024771;28;20465;-80
2022/09/22 00:16:44;;;;;;;;;;;;;;;9.10;65.30;95685.31;5029352;28;20033;-81
2022/09/22 00:19:13;;;;;;;8.98;5.88;;;;;;;9.09;65.31;95689.81;5029521;28;19917;-81
2022/09/22 00:21:38;;;;;;;8.50;5.70;;;;;;;9.09;65.63;95681.00;5028724;28;20068;-80
2022/09/22 00:24:05;;;;;;;9.93;6.30;;;;;;;9.00;65.58;95685.44;5013039;28;20065;-81
2022/09/22 00:26:31;;;;;;;8.68;6.38;;;;;;;9.01;65.66;95685.28;5012189;28;20021;-81
2022/09/22 00:28:56;;;;;;;8.35;5.90;;;;;;;9.09;65.25;95689.00;5013520;28;20059;-81
2022/09/22 00:31:25;;;;;;;9.18;6.18;;;;;;;9.10;65.60;95680.81;5027688;28;20057;-81
2022/09/22 00:33:51;;;;;;;7.78;6.00;;;;;;;9.19;64.83;95679.00;5029814;28;20033;-81
2022/09/22 00:36:17;;;;;;;7.25;5.50;;;;;;;9.26;65.06;95685.41;5028557;28;20026;-81
2022/09/22 00:38:43;;;;;;;8.35;5.90;;;;;;;9.32;64.66;95689.25;5012505;28;20024;-81
2022/09/22 00:41:14;;;;;;;8.40;5.93;;;;;;;9.35;64.49;95688.91;5030354;28;20095;-81
2022/09/22 00:43:40;;;;;;;7.78;5.72;;;;;;;9.33;64.34;95684.75;5012320;28;20034;-81
2022/09/22 00:46:13;;;;;;;10.60;6.00;;;;;;;9.26;64.08;95680.03;5013282;28;20078;-81
2022/09/22 00:48:43;;;;;;;7.10;5.75;;;;;;;9.33;64.39;95688.25;5028562;28;20051;-80
2022/09/22 00:51:08;;;;;;;8.18;5.65;;;;;;;9.38;63.97;95687.78;5013098;28;20030;-81
2022/09/22 00:53:34;;;;;;;7.57;5.32;;;;;;;9.42;64.12;95683.75;5011856;28;20028;-81
2022/09/22 00:56:20;;;;;;;7.05;5.60;;;;;;;9.45;63.71;95683.44;5011905;28;20124;-81
2022/09/22 00:58:51;;;;;;;7.88;5.70;;;;;;;9.47;63.66;95672.56;5029502;28;20565;-81
2022/09/22 01:01:18;;;;;;;7.80;5.68;;;;;;;9.32;64.04;95673.19;5011428;28;20041;-81
2022/09/22 01:03:45;;;;;;;9.35;5.97;;;;;;;9.34;64.03;95668.50;5029762;28;20021;-81
2022/09/22 01:06:13;;;;;;;8.38;5.72;;;;;;;9.27;64.35;95670.16;5027964;28;20026;-80
2022/09/22 01:08:38;;;;;;;7.47;6.20;;;;;;;9.28;63.92;95672.66;5028997;28;20468;-80
2022/09/22 01:11:05;;;;;;;8.13;5.95;;;;;;;9.34;63.72;95671.19;5012071;28;20097;-80
2022/09/22 01:14:22;;;;;;;8.00;5.93;;;;;;;9.35;63.75;95672.03;5011550;28;20030;-80
2022/09/22 01:17:02;;;;;;;8.77;5.88;;;;;;;9.35;63.95;95667.50;5029416;28;20084;-81
2022/09/22 01:19:55;;;;;;;10.98;6.43;;;;;;;9.19;64.29;95668.28;5028448;28;20556;-80
2022/09/22 01:22:58;;;;;;;7.43;5.70;;;;;;;9.19;64.00;95670.97;5028638;28;20033;-80
2022/09/22 01:25:50;;;;;;;8.63;5.78;;;;;;;9.07;64.84;95658.91;5029866;28;20033;-80
2022/09/22 01:28:21;;;;;;;10.40;5.72;;;;;;;9.02;64.83;95665.59;5013034;28;20159;-81
2022/09/22 01:30:51;;;;;;;10.18;6.35;;;;;;;8.94;65.35;95667.38;5029174;28;20500;-80
2022/09/22 01:33:58;;;;;;;8.98;6.35;;;;;;;8.87;65.56;95656.47;5028620;28;20087;-80
2022/09/22 01:36:26;;;;;;;9.43;6.15;;;;;;;8.88;65.10;95660.84;5008625;28;20034;-80
2022/09/22 01:39:33;;;;;;;10.73;6.60;;;;;;;8.92;65.10;95650.63;5025218;28;20091;-81
2022/09/22 01:42:10;;;;;;;7.28;5.72;;;;;;;8.91;65.11;95665.88;5014614;28;20060;-81
2022/09/22 01:44:55;;;;;;;8.13;5.95;;;;;;;8.98;65.35;95661.53;5028714;28;20029;-81
2022/09/22 01:47:21;;;;;;;7.30;5.50;;;;;;;8.99;64.52;95662.38;5028096;28;20124;-80
2022/09/22 01:49:51;;;;;;;7.80;5.50;;;;;;;8.99;64.02;95651.69;5026783;28;20032;-81
2022/09/22 01:52:19;;;;;;;8.45;5.75;;;;;;;9.01;64.13;95661.22;5010567;28;20037;-80
2022/09/22 01:55:04;;;;;;;7.80;6.03;;;;;;;9.03;63.99;95659.22;5027373;28;20025;-81
2022/09/22 01:57:33;;;;;;;11.23;6.07;;;;;;;9.07;63.99;95653.53;5011608;28;20420;-81
2022/09/22 02:00:02;;;;;;;11.68;6.07;;;;;;;9.08;63.51;95655.22;5028256;28;20060;-82
2022/09/22 02:02:30;;;;;;;9.70;5.43;;;;;;;9.05;63.78;95658.22;5010151;28;20556;-81
2022/09/22 02:04:57;;;;;;;7.40;5.50;;;;;;;9.05;63.33;95660.88;5011341;28;20055;-80
2022/09/22 02:07:25;;;;;;;7.28;5.50;;;;;;;9.02;63.82;95665.59;5010402;28;20029;-81
2022/09/22 02:09:50;;;;;;;8.93;4.90;;;;;;;9.00;63.55;95662.22;5010401;28;20029;-80
2022/09/22 02:12:18;;;;;;;8.90;5.88;;;;;;;8.94;63.23;95665.53;5028358;28;20033;-79
2022/09/22 02:14:47;;;;;;;8.63;5.53;;;;;;;8.95;63.12;95656.50;5010043;28;20484;-80
2022/09/22 02:17:13;;;;;;;7.60;5.60;;;;;;;8.96;63.07;95657.34;5011359;28;20048;-80
2022/09/22 02:19:39;;;;;;;9.50;6.22;;;;;;;8.86;63.09;95666.34;4993291;28;20299;-80
2022/09/22 02:22:05;;;;;;;9.70;5.55;;;;;;;8.88;63.31;95656.31;5027996;28;20030;-80
2022/09/22 02:24:34;;;;;;;12.48;6.07;;;;;;;8.89;63.29;95658.00;5010018;28;20128;-81
2022/09/22 02:27:02;;;;;;;9.10;6.28;;;;;;;8.87;62.82;95659.16;5028065;28;20026;-82
2022/09/22 02:29:30;;;;;;;12.60;6.18;;;;;;;8.82;63.27;95658.81;5010283;28;20108;-81
2022/09/22 02:31:55;;;;;;;11.43;6.82;;;;;;;8.81;62.09;95657.13;5009906;28;20541;-80
2022/09/22 02:34:21;;;;;;;9.25;5.72;;;;;;;8.81;62.71;95660.63;5010783;28;20030;-80
2022/09/22 02:37:02;;;;;;;9.48;5.90;;;;;;;8.81;62.43;95654.44;5008832;28;20025;-80
2022/09/22 02:39:46;;;;;;;9.15;6.00;;;;;;;8.75;62.92;95656.75;5026605;28;20033;-80
2022/09/22 02:42:35;;;;;;;7.13;5.45;;;;;;;8.70;63.24;95652.91;5026712;28;20504;-81
2022/09/22 02:45:22;;;;;;;9.05;6.20;;;;;;;8.66;63.27;95657.72;5026326;28;20018;-80
2022/09/22 02:48:03;;;;;;;6.90;5.38;;;;;;;8.58;64.09;95661.19;5027547;28;20075;-81
2022/09/22 02:50:28;;;;;;;7.65;5.25;;;;;;;8.51;64.67;95654.78;5010413;28;20091;-80
2022/09/22 02:53:14;;;;;;;8.63;6.25;;;;;;;8.52;64.95;95662.66;5027580;28;20033;-81
2022/09/22 02:55:40;;;;;;;7.75;5.60;;;;;;;8.55;65.39;95656.16;5026753;28;20029;-81
2022/09/22 02:58:05;;;;;;;8.25;5.85;;;;;;;8.50;65.70;95672.66;5009030;28;20025;-79
2022/09/22 03:00:31;;;;;;;8.75;6.20;;;;;;;8.49;66.14;95667.47;5026631;28;20056;-80
2022/09/22 03:02:57;;;;;;;9.73;6.75;;;;;;;8.50;66.20;95663.78;5025134;28;20424;-79
2022/09/22 03:05:22;;;;;;;8.98;6.45;;;;;;;8.55;66.50;95671.34;5027660;28;20022;-79
2022/09/22 03:07:48;;;;;;;8.45;6.03;;;;;;;8.34;67.20;95676.06;5026573;28;20029;-79
2022/09/22 03:10:14;;;;;;;9.25;6.43;;;;;;;8.09;67.93;95673.22;5026554;28;20025;-79
2022/09/22 03:12:42;;;;;;;9.50;6.35;;;;;;;8.06;67.76;95667.34;5008636;28;20026;-79
2022/09/22 03:15:12;;;;;;;9.52;6.55;;;;;;;8.21;67.60;95673.78;5024998;28;20029;-79
2022/09/22 03:17:37;;;;;;;8.07;6.38;;;;;;;8.20;67.44;95672.13;5011152;28;20025;-80
2022/09/22 03:20:04;;;;;;;10.02;6.60;;;;;;;8.23;67.54;95674.50;5008256;28;20036;-81
2022/09/22 03:22:29;;;;;;;8.65;6.22;;;;;;;8.29;67.46;95670.34;4994275;28;20056;-80
2022/09/22 03:24:55;;;;;;;8.23;6.25;;;;;;;8.30;66.96;95672.03;5025409;28;20463;-81
2022/09/22 03:27:20;;;;;;;9.02;6.35;;;;;;;8.38;66.89;95684.59;5027112;28;20500;-80
2022/09/22 03:29:46;;;;;;;8.75;6.57;;;;;;;8.38;66.79;95672.06;5025317;28;20037;-81
2022/09/22 03:32:11;;;;;;;8.95;6.85;;;;;;;8.39;66.69;95679.09;5026298;28;20033;-80
2022/09/22 03:34:37;;;;;;;9.23;6.82;;;;;;;8.34;67.05;95680.56;5026504;28;20025;-81
2022/09/22 03:37:02;;;;;;;9.70;6.93;;;;;;;8.35;67.62;95676.91;5024459;28;20036;-80
2022/09/22 03:39:27;;;;;;;9.60;6.88;;;;;;;8.28;67.81;95677.53;5010155;28;20104;-81
2022/09/22 03:41:53;;;;;;;9.48;6.70;;;;;;;8.22;68.04;95669.31;5008138;28;20026;-80
2022/09/22 03:44:18;;;;;;;8.85;6.72;;;;;;;8.20;68.40;95674.81;5009706;28;20100;-80
2022/09/22 03:46:44;;;;;;;8.77;6.38;;;;;;;8.19;68.08;95674.97;5008568;28;20528;-80
2022/09/22 03:49:09;;;;;;;9.40;6.70;;;;;;;8.18;68.41;95670.59;5026702;28;20048;-80
2022/09/22 03:51:35;;;;;;;9.07;6.07;;;;;;;8.20;68.89;95669.47;5030272;28;20087;-80
2022/09/22 03:54:01;;;;;;;8.98;6.75;;;;;;;8.23;68.70;95678.97;5028858;28;20072;-80
2022/09/22 03:56:26;;;;;;;9.38;6.65;;;;;;;8.28;68.89;95674.00;5013568;28;20018;-80
2022/09/22 03:58:51;;;;;;;13.40;6.57;;;;;;;8.36;68.63;95670.56;5011673;28;20033;-80
2022/09/22 04:01:17;;;;;;;11.02;6.53;;;;;;;8.45;68.74;95666.94;5013896;28;20021;-80
2022/09/22 04:03:42;;;;;;;9.10;6.85;;;;;;;8.58;68.43;95676.38;5029464;28;20416;-79
2022/09/22 04:06:08;;;;;;;9.52;6.82;;;;;;;8.64;67.72;95673.09;5031324;28;20103;-80
2022/09/22 04:08:34;;;;;;;7.97;6.45;;;;;;;8.68;67.39;95677.13;5029620;28;20032;-80
2022/09/22 04:11:00;;;;;;;8.50;6.78;;;;;;;8.73;67.14;95674.81;5012654;28;20030;-80
2022/09/22 04:13:26;;;;;;;10.20;6.72;;;;;;;8.82;67.39;95682.88;5030743;28;20528;-80
2022/09/22 04:15:51;;;;;;;6.93;6.03;;;;;;;8.87;66.41;95675.19;5012172;28;20029;-80
2022/09/22 04:18:16;;;;;;;9.77;7.53;;;;;;;8.90;66.04;95674.88;5031791;28;20025;-81
2022/09/22 04:20:45;;;;;;;9.68;7.03;;;;;;;8.86;65.79;95676.19;5030091;28;20472;-80
2022/09/22 04:23:11;;;;;;;9.32;7.25;;;;;;;8.88;66.60;95675.03;5029751;28;20070;-81
2022/09/22 04:25:37;;;;;;;10.90;8.82;;;;;;;8.89;66.93;95678.56;5012074;28;20541;-79
2022/09/22 04:28:03;;;;;;;10.85;7.85;;;;;;;8.96;66.78;95676.09;5012908;28;20025;-80
2022/09/22 04:30:29;;;;;;;18.38;8.02;;;;;;;9.04;65.72;95670.78;5030603;28;20151;-80
2022/09/22 04:32:54;;;;;;;7.75;6.60;;;;;;;9.07;66.66;95680.31;5028515;28;20036;-80
2022/09/22 04:35:19;;;;;;;8.25;6.60;;;;;;;9.09;66.22;95681.81;5030806;28;20029;-81
2022/09/22 04:37:45;;;;;;;10.40;7.25;;;;;;;9.17;66.29;95678.34;5029116;28;20025;-81
2022/09/22 04:40:11;;;;;;;8.57;6.63;;;;;;;9.20;65.55;95683.38;5030821;28;20033;-80
2022/09/22 04:42:40;;;;;;;16.35;7.85;;;;;;;9.17;64.07;95682.84;5029061;28;20052;-80
2022/09/22 04:45:06;;;;;;;12.63;6.78;;;;;;;9.13;62.02;95685.00;5030218;28;20705;-80
2022/09/22 04:47:32;;;;;;;9.18;7.10;;;;;;;8.98;61.90;95688.28;5029306;28;20112;-80
2022/09/22 04:49:58;;;;;;;12.13;7.68;;;;;;;8.92;62.06;95688.94;4996140;28;20449;-79
2022/09/22 04:52:23;;;;;;;10.25;7.20;;;;;;;8.96;62.56;95690.31;5029359;28;20468;-80
2022/09/22 04:54:49;;;;;;;10.85;7.15;;;;;;;8.97;62.41;95689.28;5028449;28;20052;-79
2022/09/22 04:57:14;;;;;;;12.52;8.18;;;;;;;8.88;62.65;95683.06;5031131;28;20037;-81
2022/09/22 04:59:39;;;;;;;14.68;8.00;;;;;;;8.92;63.00;95683.59;5029095;28;20037;-80
2022/09/22 05:02:05;;;;;;;17.17;8.43;;;;;;;8.97;62.48;95680.41;4995408;28;20087;-81
2022/09/22 05:04:30;;;;;;;19.23;8.25;;;;;;;9.05;62.18;95677.78;5028479;28;20029;-81
2022/09/22 05:06:56;;;;;;;19.23;8.55;;;;;;;9.16;62.57;95679.31;5030370;28;20022;-81
2022/09/22 05:09:21;;;;;;;20.67;8.48;;;;;;;9.18;62.82;95677.34;5028749;28;20022;-81
2022/09/22 05:11:49;;;;;;;22.00;10.05;;;;;;;9.22;62.78;95689.38;5028009;28;20026;-80
2022/09/22 05:14:15;;;;;;;19.00;8.27;;;;;;;9.28;62.75;95683.38;5030270;28;20030;-80
2022/09/22 05:16:41;;;;;;;19.55;8.07;;;;;;;9.30;63.25;95685.06;5028291;28;20064;-80
2022/09/22 05:19:08;;;;;;;21.58;8.25;;;;;;;9.31;63.45;95678.69;5029288;28;20029;-80
2022/09/22 05:21:34;;;;;;;16.73;7.75;;;;;;;9.32;63.72;95680.41;5027587;28;20025;-81
2022/09/22 05:23:59;;;;;;;19.77;9.30;;;;;;;9.33;63.55;95690.09;5012467;28;20051;-80
2022/09/22 05:26:25;;;;;;;19.52;8.40;;;;;;;9.27;64.08;95691.56;5029877;28;20021;-80
2022/09/22 05:28:50;;;;;;;14.05;8.00;;;;;;;9.34;64.18;95697.09;5029709;28;20039;-81
2022/09/22 05:31:16;;;;;;;19.58;7.90;;;;;;;9.39;64.12;95694.78;5027880;28;20530;-81
2022/09/22 05:33:42;;;;;;;16.67;7.78;;;;;;;9.39;65.52;95694.78;5028490;28;20113;-80
2022/09/22 05:36:07;;;;;;;23.65;8.07;;;;;;;9.44;65.42;95697.81;5030111;28;20060;-80
2022/09/22 05:38:32;;;;;;;12.18;8.02;;;;;;;9.52;65.09;95697.00;5027177;28;20030;-80
2022/09/22 05:40:58;;;;;;;19.70;7.75;;;;;;;9.58;64.91;95692.81;5028693;28;20029;-81
2022/09/22 05:43:23;;;;;;;15.80;8.35;;;;;;;9.49;65.13;95695.50;5028981;28;20535;-80
2022/09/22 05:45:49;;;;;;;23.00;8.50;;;;;;;9.60;65.11;95698.84;5028118;28;20021;-80
2022/09/22 05:48:14;;;;;;;21.80;8.40;;;;;;;9.70;64.52;95694.19;5029072;28;20096;-81
2022/09/22 05:50:40;;;;;;;17.85;7.53;;;;;;;9.86;64.36;95700.56;5028768;28;20032;-80
2022/09/22 05:53:07;;;;;;;13.95;7.53;;;;;;;9.88;64.45;95699.38;5011602;28;20029;-81
2022/09/22 05:55:32;;;;;;;20.75;10.82;;;;;;;9.96;64.33;95700.41;5010330;28;20030;-81
2022/09/22 05:57:58;;;;;;;11.50;7.93;;;;;;;9.95;64.58;95704.09;5028473;28;20029;-80
2022/09/22 06:00:24;;;;;;;11.93;7.40;;;;;;;10.00;64.56;95696.38;5026329;28;20018;-81
2022/09/22 06:02:49;;;;;;;10.52;6.70;;;;;;;10.03;64.39;95701.41;5028390;28;20025;-81
2022/09/22 06:05:15;;;;;;;10.57;6.85;;;;;;;10.09;64.36;95702.59;5028353;28;20032;-81
2022/09/22 06:07:40;;;;;;;12.63;6.40;;;;;;;10.17;63.81;95701.75;5027266;28;20029;-79
2022/09/22 06:10:06;;;;;;;9.65;6.18;;;;;;;10.23;63.73;95707.28;5028998;28;20463;-80
2022/09/22 06:12:32;;;;;;;10.77;7.15;;;;;;;10.24;63.77;95702.75;5027635;28;20029;-81
2022/09/22 06:14:57;;;;;;;12.23;7.05;;;;;;;10.29;63.68;95700.41;5028880;28;20018;-79
2022/09/22 06:17:23;;;;;;;16.48;7.30;;;;;;;10.33;64.23;95706.28;5026497;28;20025;-80
2022/09/22 06:19:49;;;;;;;19.50;7.18;;;;;;;10.46;64.77;95701.25;5029209;28;20025;-81
2022/09/22 06:22:15;;;;;;;16.63;6.60;;;;;;;10.50;64.30;95699.06;5028141;28;20535;-80
2022/09/22 06:24:41;;;;;;;13.57;7.22;;;;;;;10.66;63.55;95698.22;5010391;28;20266;-80
2022/09/22 06:27:06;;;;;;;13.65;6.60;;;;;;;10.76;63.16;95695.34;5026985;28;20037;-80
2022/09/22 06:29:32;;;;;;;17.40;6.93;;;;;;;10.79;62.98;95707.56;5026421;28;20554;-81
2022/09/22 06:31:57;;;;;;;12.35;7.30;;;;;;;10.65;63.74;95707.28;5027407;28;20022;-80
2022/09/22 06:34:24;;;;;;;10.20;6.50;;;;;;;10.74;63.49;95703.56;5027135;28;20026;-80
2022/09/22 06:36:50;;;;;;;9.65;7.75;;;;;;;10.73;63.76;95701.91;5028170;28;20048;-80
2022/09/22 06:39:15;;;;;;;8.93;7.13;;;;;;;10.81;63.58;95706.41;5026563;28;20026;-80
2022/09/22 06:41:41;;;;;;;11.77;7.25;;;;;;;10.60;64.40;95706.94;5027232;28;20033;-80
2022/09/22 06:44:09;;;;;;;11.80;7.55;;;;;;;10.68;64.19;95711.44;5028193;28;20029;-81
2022/09/22 06:46:34;;;;;;;9.27;7.35;;;;;;;10.59;64.38;95710.63;5027895;28;20055;-81
2022/09/22 06:49:01;;;;;;;9.35;7.00;;;;;;;10.68;64.89;95711.44;5028583;28;20083;-80
2022/09/22 06:51:27;;;;;;;12.70;7.35;;;;;;;10.58;65.05;95711.63;5026163;28;20053;-81
2022/09/22 06:53:56;;;;;;;11.75;7.20;;;;;;;10.50;65.23;95705.28;5027777;28;20021;-82
2022/09/22 06:56:23;;;;;;;8.20;6.82;;;;;;;10.56;64.60;95701.06;5025650;28;20518;-80
2022/09/22 06:58:49;;;;;;;12.45;6.88;;;;;;;10.67;64.19;95697.22;5010644;28;20458;-81
2022/09/22 07:01:15;;;;;;;11.25;7.63;;;;;;;10.69;63.91;95699.72;5027518;28;20018;-80
2022/09/22 07:03:41;;;;;;;15.93;7.03;;;;;;;10.79;63.38;95696.81;5009564;28;20039;-80
2022/09/22 07:06:07;;;;;;;12.48;7.70;;;;;;;10.80;63.49;95703.88;5009894;28;20464;-81
2022/09/22 07:08:33;;;;;;;9.27;7.40;;;;;;;11.17;62.66;95698.91;5009596;28;20017;-78
2022/09/22 07:11:03;;;;;;;8.05;6.70;;;;;;;11.13;62.54;95699.25;5010079;28;20040;-80
2022/09/22 07:13:30;;;;;;;6.90;5.93;;;;;;;11.43;61.61;95697.78;5024959;28;20025;-80
2022/09/22 07:16:03;;;;;;;8.35;6.57;;;;;;;11.37;61.82;95697.47;5026542;28;20030;-80
2022/09/22 07:18:28;;;;;;;7.65;6.20;;;;;;;11.44;60.88;95697.59;5025572;28;20092;-81
2022/09/22 07:21:05;;;;;;;8.48;5.85;;;;;;;11.38;61.04;95692.94;5009056;28;20026;-81
2022/09/22 07:23:34;;;;;;;7.22;5.85;;;;;;;11.40;60.61;95696.25;5009506;28;20048;-80
2022/09/22 07:26:02;;;;;;;6.95;5.50;;;;;;;11.92;59.26;95693.94;5008405;28;20021;-80
2022/09/22 07:28:28;;;;;;;7.10;5.40;;;;;;;11.23;60.37;95691.00;5027285;28;20032;-81
2022/09/22 07:30:57;;;;;;;7.35;5.15;;;;;;;11.36;60.03;95689.59;5025454;28;20038;-80
2022/09/22 07:33:23;;;;;;;6.07;4.97;;;;;;;11.35;60.19;95687.88;5027329;28;20037;-79
2022/09/22 07:36:00;;;;;;;7.13;5.57;;;;;;;11.60;59.63;95690.47;5026313;28;20052;-80
2022/09/22 07:38:29;;;;;;;7.22;5.38;;;;;;;11.47;60.50;95689.19;5025628;28;20568;-80
2022/09/22 07:40:55;;;;;;;7.10;5.43;;;;;;;11.39;59.96;95686.53;5024844;28;20021;-81
2022/09/22 07:43:20;;;;;;;8.50;5.18;;;;;;;11.68;59.81;95687.72;5025090;28;20036;-80
2022/09/22 07:45:58;;;;;;;7.10;4.03;;;;;;;11.87;56.87;95689.09;5027260;28;20032;-80
2022/09/22 07:48:46;;;;;;;5.45;4.45;;;;;;;12.08;56.38;95684.09;5026008;28;20056;-81
2022/09/22 07:51:22;;;;;;;6.03;4.53;;;;;;;12.02;56.31;95682.13;5025418;28;20546;-81
2022/09/22 07:53:49;;;;;;;5.22;4.28;;;;;;;11.97;56.44;95680.81;5009550;28;20049;-80
2022/09/22 07:56:17;;;;;;;7.43;5.15;;;;;;;11.91;57.18;95683.38;5025608;28;20083;-79
2022/09/22 07:58:52;;;;;;;5.85;3.92;;;;;;;12.19;55.65;95678.31;5026117;28;20119;-80
2022/09/22 08:01:18;;;;;;;4.50;3.25;;;;;;;12.09;55.88;95675.84;5024751;28;20029;-81
2022/09/22 08:03:46;;;;;;;11.00;5.82;;;;;;;12.36;55.44;95678.97;5007964;28;20018;-79
2022/09/22 08:06:12;;;;;;;7.55;3.83;;;;;;;12.64;52.16;95674.84;5006970;28;20538;-80
2022/09/22 08:08:38;;;;;;;5.00;3.47;;;;;;;12.80;52.58;95676.53;5023481;28;20026;-81
2022/09/22 08:11:13;;;;;;;7.13;3.80;;;;;;;13.14;51.89;95674.31;5024528;28;20026;-80
2022/09/22 08:13:40;;;;;;;5.25;3.72;;;;;;;13.18;52.36;95675.63;5024491;28;20508;-81
2022/09/22 08:16:05;;;;;;;7.53;3.85;;;;;;;13.30;51.81;95678.66;5023964;28;20039;-81
2022/09/22 08:18:32;;;;;;;6.30;3.83;;;;;;;12.88;53.08;95675.59;5024196;28;20025;-80
2022/09/22 08:21:00;;;;;;;4.95;3.53;;;;;;;12.95;53.00;95681.09;5024149;28;20680;-79
2022/09/22 08:23:27;;;;;;;3.88;2.80;;;;;;;12.77;52.16;95685.00;5023053;28;20124;-80
2022/09/22 08:25:53;;;;;;;5.10;3.33;;;;;;;12.76;52.26;95671.72;5024749;28;20025;-80
2022/09/22 08:28:18;;;;;;;4.78;3.08;;;;;;;12.66;52.50;95666.59;5022831;28;20497;-81
2022/09/22 08:30:45;;;;;;;5.07;3.17;;;;;;;13.01;51.14;95671.44;5022537;28;20066;-81
2022/09/22 08:33:12;;;;;;;4.03;2.90;;;;;;;13.09;50.53;95665.97;5007024;28;20030;-81
2022/09/22 08:35:37;;;;;;;3.97;2.60;;;;;;;13.21;49.13;95666.31;5023744;28;20040;-81
2022/09/22 08:38:03;;;;;;;4.45;2.50;;;;;;;13.35;49.98;95662.75;5027540;28;20029;-80
2022/09/22 08:40:29;;;;;;;5.93;2.70;;;;;;;13.34;48.15;95657.56;5009428;28;20029;-81
2022/09/22 08:42:54;;;;;;;3.70;2.47;;;;;;;13.70;47.61;95655.94;5027189;28;20299;-80
2022/09/22 08:45:46;;;;;;;6.63;2.20;;;;;;;13.31;47.88;95652.56;5027377;28;20032;-81
2022/09/22 08:54:10;;;;;;;3.45;2.03;;;;;;;13.83;46.40;95649.84;5013218;28;20181;-80
2022/09/22 08:56:59;;;;;;;3.90;2.20;;;;;;;13.82;46.76;95637.38;5027566;28;20461;-80
2022/09/22 08:59:41;;;;;;;3.20;2.40;;;;;;;13.75;47.52;95650.78;5027461;28;20476;-80
2022/09/22 09:02:34;;;;;;;3.15;2.03;;;;;;;13.70;47.65;95647.84;5025849;28;20030;-82
2022/09/22 09:05:21;;;;;;;4.22;2.25;;;;;;;14.06;47.72;95651.47;5027787;28;20416;-82
2022/09/22 09:07:59;;;;;;;2.90;2.05;;;;;;;14.16;46.67;95645.75;5027966;28;20053;-80
2022/09/22 09:10:39;;;;;;;3.58;2.17;;;;;;;14.06;47.39;95646.09;5026726;28;20087;-80
2022/09/22 09:13:33;;;;;;;3.60;2.30;;;;;;;14.00;46.91;95636.09;5010049;28;20038;-80
2022/09/22 09:16:14;;;;;;;4.15;2.10;;;;;;;14.09;46.33;95637.59;5026380;28;20024;-81
2022/09/22 09:18:41;;;;;;;3.03;2.15;;;;;;;13.84;46.52;95638.88;5025607;28;20040;-81
2022/09/22 09:21:09;;;;;;;7.80;2.25;;;;;;;14.07;45.84;95639.69;5026628;28;20034;-80
2022/09/22 09:23:40;;;;;;;2.63;1.92;;;;;;;14.44;44.13;95645.78;5025189;28;20386;-81
2022/09/22 09:26:05;;;;;;;2.40;1.63;;;;;;;14.48;43.44;95640.00;5010852;28;20025;-80
2022/09/22 09:28:34;;;;;;;2.95;1.52;;;;;;;14.71;42.82;95623.53;5026911;28;20032;-80
2022/09/22 09:31:18;;;;;;;4.05;2.05;;;;;;;14.21;45.83;95630.69;5025615;28;20069;-81
2022/09/22 09:33:46;;;;;;;7.25;2.10;;;;;;;14.07;45.78;95628.91;5009785;28;20022;-81
2022/09/22 09:36:16;;;;;;;4.20;2.13;;;;;;;14.06;46.13;95622.66;5026568;28;20056;-80
2022/09/22 09:38:51;;;;;;;3.05;2.13;;;;;;;13.93;46.34;95626.06;5026316;28;20057;-80
2022/09/22 09:41:20;;;;;;;2.75;1.90;;;;;;;14.21;46.36;95624.44;5026495;28;20445;-82
2022/09/22 09:43:45;;;;;;;2.53;1.88;;;;;;;14.34;43.91;95629.13;5009413;28;20399;-80
2022/09/22 09:46:13;;;;;;;2.60;1.63;;;;;;;14.26;44.51;95621.16;5025526;28;20091;-80
2022/09/22 09:48:51;;;;;;;3.42;1.50;;;;;;;14.67;42.80;95617.69;5024259;28;20428;-79
2022/09/22 09:51:18;;;;;;;3.22;1.75;;;;;;;14.17;43.42;95625.88;5027287;28;20048;-80
2022/09/22 09:53:45;;;;;;;4.43;1.60;;;;;;;14.47;42.88;95612.19;5025632;28;20509;-81
2022/09/22 09:56:28;;;;;;;1.90;1.30;;;;;;;14.65;41.86;95617.09;5027107;28;20335;-81
2022/09/22 10:01:39;;;;;;;2.88;1.70;;;;;;;14.50;43.67;95611.78;5026549;28;19928;-80
2022/09/22 10:04:04;;;;;;;2.30;1.65;;;;;;;14.41;43.80;95612.97;5009468;28;20056;-81
2022/09/22 10:06:30;;;;;;;2.78;1.92;;;;;;;14.12;45.71;95614.84;5008127;28;20508;-81
2022/09/22 10:08:56;;;;;;;2.90;2.10;;;;;;;14.03;46.19;95612.25;5027286;28;20500;-80
2022/09/22 10:11:29;;;;;;;5.50;2.00;;;;;;;13.93;46.48;95612.59;5025886;28;20036;-80
2022/09/22 10:13:55;;;;;;;2.80;1.80;;;;;;;14.12;46.13;95610.28;5009116;28;20017;-81
2022/09/22 10:16:22;;;;;;;2.80;1.90;;;;;;;13.83;46.02;95612.09;5025354;28;20083;-80
2022/09/22 10:19:21;;;;;;;2.80;1.90;;;;;;;13.71;45.53;95612.63;5029952;28;20025;-82
2022/09/22 10:21:47;;;;;;;3.40;1.67;;;;;;;13.74;45.93;95610.53;5023444;28;20088;-80
2022/09/22 10:25:00;;;;;;;2.80;1.80;;;;;;;14.11;45.79;95610.44;5024306;28;20029;-80
2022/09/22 10:27:28;;;;;;;3.10;1.55;;;;;;;14.26;44.39;95599.56;5022648;28;20041;-80
2022/09/22 10:30:27;;;;;;;2.72;1.35;;;;;;;14.37;44.06;95590.94;5008493;28;20108;-80
2022/09/22 10:33:07;;;;;;;3.25;1.85;;;;;;;14.84;44.21;95590.41;5023935;28;20099;-81
2022/09/22 10:35:33;;;;;;;2.50;1.55;;;;;;;14.62;43.87;95587.75;5026481;28;20034;-79
2022/09/22 10:38:19;;;;;;;3.78;1.60;;;;;;;14.34;43.61;95583.25;4992637;28;20132;-81
2022/09/22 10:41:11;;;;;;;4.72;1.80;;;;;;;14.12;44.65;95591.41;4994530;28;20037;-81
2022/09/22 10:43:42;;;;;;;4.32;1.40;;;;;;;14.34;45.29;95596.72;5023924;28;20038;-81
2022/09/22 10:46:13;;;;;;;2.28;1.45;;;;;;;14.80;43.13;95584.56;5024238;28;20100;-81
2022/09/22 10:48:53;;;;;;;3.97;1.55;;;;;;;14.70;43.12;95582.22;5024839;28;20018;-81
2022/09/22 10:51:37;;;;;;;1.98;1.30;;;;;;;14.89;42.47;95587.97;5008266;28;20025;-81
2022/09/22 10:54:21;;;;;;;5.20;1.52;;;;;;;14.89;43.12;95574.47;5024972;28;20040;-82
2022/09/22 10:56:52;;;;;;;2.38;1.50;;;;;;;15.12;42.28;95569.75;5025905;28;20067;-81
2022/09/22 10:59:57;;;;;;;1.90;1.20;;;;;;;15.33;40.42;95576.91;5007866;28;20063;-80
2022/09/22 11:02:38;;;;;;;2.35;1.10;;;;;;;15.09;40.36;95568.28;5025326;28;20026;-81
2022/09/22 11:05:15;;;;;;;4.55;2.17;;;;;;;15.55;41.42;95566.75;5026423;28;20534;-80
2022/09/22 11:13:48;;;;;;;3.80;1.70;;;;;;;15.26;44.35;95574.19;5011298;28;20040;-81
2022/09/22 11:16:26;;;;;;;4.55;1.67;;;;;;;15.45;44.47;95575.25;5024891;28;20112;-81
2022/09/22 11:19:09;;;;;;;3.33;1.60;;;;;;;15.54;43.77;95575.06;5024125;28;20022;-80
2022/09/22 11:21:42;;;;;;;2.75;1.60;;;;;;;15.50;43.53;95571.09;5025001;28;20398;-80
2022/09/22 11:24:17;;;;;;;;;;;;;;;14.96;44.41;95571.75;5025073;28;20219;-81
2022/09/22 11:26:49;;;;;;;3.72;1.30;;;;;;;14.76;44.46;95577.91;5025998;28;19921;-81
2022/09/22 11:29:27;;;;;;;1.88;1.30;;;;;;;14.17;46.04;95567.34;5024307;28;20025;-81
2022/09/22 11:32:07;;;;;;;4.63;1.40;;;;;;;13.86;46.57;95576.66;5025134;28;20171;-80
2022/09/22 11:35:01;;;;;;;1.92;1.20;;;;;;;14.21;45.77;95576.72;5025085;28;20485;-80
2022/09/22 11:37:26;;;;;;;2.38;1.40;;;;;;;14.21;46.62;95592.06;5009728;28;20024;-81
2022/09/22 11:40:15;;;;;;;2.20;1.10;;;;;;;14.06;46.89;95579.50;5024371;28;20026;-80
2022/09/22 11:42:45;;;;;;;2.78;1.23;;;;;;;14.06;46.76;95584.06;5024790;28;20032;-81
2022/09/22 11:45:44;;;;;;;2.38;1.02;;;;;;;14.23;46.54;95567.59;5023635;28;20029;-81
2022/09/22 11:48:31;;;;;;;1.50;1.10;;;;;;;14.49;45.23;95566.94;5023662;28;20037;-81
2022/09/22 11:50:59;;;;;;;3.20;1.50;;;;;;;14.82;44.49;95568.19;5024377;28;20033;-81
2022/09/22 11:53:32;;;;;;;7.38;1.40;;;;;;;14.98;43.40;95558.09;5025248;28;20557;-81
2022/09/22 11:56:43;;;;;;;2.05;1.08;;;;;;;14.75;43.81;95551.91;5007766;28;20025;-81
2022/09/22 11:59:13;;;;;;;1.83;1.00;;;;;;;15.02;42.79;95551.22;5018166;28;20115;-80
2022/09/22 12:01:39;;;;;;;2.70;1.10;;;;;;;15.11;42.99;95554.56;5024153;28;20033;-79
2022/09/22 12:04:39;;;;;;;1.75;1.10;;;;;;;14.78;43.79;95546.09;5006663;28;20026;-79
2022/09/22 12:07:23;;;;;;;2.13;1.20;;;;;;;15.25;42.58;95552.75;5022822;28;20037;-79
2022/09/22 12:10:02;;;;;;;3.33;1.00;;;;;;;15.44;42.48;95546.56;5008583;28;20500;-80